Time;durP1;ratioP1;P1;durP2;ratioP2;P2;SDS_P1;SDS_P2;PMS_P1;PMS_P2;Temp;Humidity;BMP_temperature;BMP_pressure;BME280_temperature;BME280_humidity;BME280_pressure;Samples;Min_cycle;Max_cycle;Signal;HPM_P1;HPM_P2
2023/10/21 00:00:01;;;;;;;;;;;6.80;96.60;;;;;;5053014;28;19908;-47
2023/10/21 00:02:26;;;;;;;;;;;6.80;96.60;;;;;;5073179;28;19962;-53
2023/10/21 00:04:53;;;;;;;;;;;6.80;96.60;;;;;;5073500;28;20306;-47
2023/10/21 00:07:19;;;;;;;;;;;6.90;96.60;;;;;;5063914;28;19999;-47
2023/10/21 00:09:46;;;;;;;;;;;6.90;96.70;;;;;;5072556;28;19990;-53
2023/10/21 00:12:12;;;;;;;;;;;6.90;96.70;;;;;;5073664;28;19923;-48
2023/10/21 00:14:40;;;;;;;;;;;6.90;96.70;;;;;;5062098;28;20673;-48
2023/10/21 00:17:07;;;;;;;;;;;6.90;96.70;;;;;;5053586;28;19920;-51
2023/10/21 00:19:35;;;;;;;;;;;6.90;96.60;;;;;;5071351;28;19908;-47
2023/10/21 00:22:05;;;;;;;;;;;6.90;96.60;;;;;;5073462;28;19916;-52
2023/10/21 00:24:32;;;;;;;;;;;7.00;96.70;;;;;;5062132;28;19912;-49
2023/10/21 00:26:57;;;;;;;;;;;7.00;96.70;;;;;;5053382;28;20215;-49
2023/10/21 00:29:25;;;;;;;;;;;7.00;96.70;;;;;;5053148;28;20340;-51
2023/10/21 00:31:52;;;;;;;;;;;7.00;96.70;;;;;;5056112;28;20254;-48
2023/10/21 00:34:17;;;;;;;;;;;7.00;96.80;;;;;;5069753;28;19908;-52
2023/10/21 00:36:47;;;;;;;;;;;7.00;96.80;;;;;;5068164;28;19943;-47
2023/10/21 00:39:13;;;;;;;;;;;7.10;96.80;;;;;;5071654;28;19938;-51
2023/10/21 00:41:42;;;;;;;;;;;7.10;96.80;;;;;;5063866;28;19916;-51
2023/10/21 00:44:08;;;;;;;;;;;7.10;96.80;;;;;;5072824;28;19939;-51
2023/10/21 00:46:38;;;;;;;;;;;7.20;96.80;;;;;;5070135;28;19919;-49
2023/10/21 00:49:04;;;;;;;;;;;7.20;96.80;;;;;;5071785;28;19952;-49
2023/10/21 00:51:32;;;;;;;;;;;7.20;96.80;;;;;;5069309;28;19908;-49
2023/10/21 00:53:58;;;;;;;;;;;7.20;96.80;;;;;;5069123;28;19958;-46
2023/10/21 00:56:25;;;;;;;;;;;7.30;96.80;;;;;;5070002;28;19908;-47
2023/10/21 00:58:52;;;;;;;;;;;7.30;96.80;;;;;;5071714;28;20325;-50
2023/10/21 01:01:17;;;;;;;;;;;7.30;96.80;;;;;;5087448;28;20078;-49
2023/10/21 01:03:44;;;;;;;;;;;7.30;96.80;;;;;;5071011;28;20665;-47
2023/10/21 01:06:17;;;;;;;;;;;7.30;96.80;;;;;;5068888;28;19912;-49
2023/10/21 01:08:45;;;;;;;;;;;7.30;96.90;;;;;;5055933;28;19912;-51
2023/10/21 01:11:12;;;;;;;;;;;7.30;96.90;;;;;;5051632;28;19916;-51
2023/10/21 01:13:38;;;;;;;;;;;7.30;96.90;;;;;;5064949;28;20045;-51
2023/10/21 01:16:05;;;;;;;;;;;7.40;96.90;;;;;;5071778;28;20014;-47
2023/10/21 01:18:33;;;;;;;;;;;7.40;96.90;;;;;;5065099;28;19932;-47
2023/10/21 01:21:01;;;;;;;;;;;7.40;96.90;;;;;;5066013;28;19919;-52
2023/10/21 01:23:28;;;;;;;;;;;7.40;96.90;;;;;;5067899;28;19920;-47
2023/10/21 01:25:53;;;;;;;;;;;7.40;96.90;;;;;;5052898;28;19920;-49
2023/10/21 01:28:20;;;;;;;;;;;7.40;97.00;;;;;;5053926;28;19916;-49
2023/10/21 01:30:46;;;;;;;;;;;7.40;96.90;;;;;;5071066;28;20038;-53
2023/10/21 01:33:12;;;;;;;;;;;7.40;97.00;;;;;;5072495;28;20338;-51
2023/10/21 01:35:38;;;;;;;;;;;7.40;97.00;;;;;;5072187;28;19922;-49
2023/10/21 01:38:03;;;;;;;;;;;7.40;96.90;;;;;;5068120;28;20702;-49
2023/10/21 01:40:30;;;;;;;;;;;7.40;96.90;;;;;;5072543;28;19904;-49
2023/10/21 01:42:57;;;;;;;;;;;7.50;97.00;;;;;;5063018;28;20497;-47
2023/10/21 01:45:23;;;;;;;;;;;7.50;97.00;;;;;;5071550;28;20454;-48
2023/10/21 01:47:50;;;;;;;;;;;7.50;97.00;;;;;;5072334;28;20264;-48
2023/10/21 01:50:18;;;;;;;;;;;7.50;97.00;;;;;;5067802;28;19908;-51
2023/10/21 01:52:44;;;;;;;;;;;7.50;97.00;;;;;;5072387;28;20329;-51
2023/10/21 01:55:09;;;;;;;;;;;7.60;97.00;;;;;;5065583;28;20008;-52
2023/10/21 01:57:36;;;;;;;;;;;7.60;97.00;;;;;;5069331;28;20010;-52
2023/10/21 02:00:10;;;;;;;;;;;7.60;97.00;;;;;;5071806;28;19970;-51
2023/10/21 02:02:46;;;;;;;;;;;7.60;97.10;;;;;;5070647;28;19909;-50
2023/10/21 02:05:12;;;;;;;;;;;7.60;97.00;;;;;;5075406;28;20256;-48
2023/10/21 02:07:39;;;;;;;;;;;7.70;97.10;;;;;;5071065;28;19912;-47
2023/10/21 02:10:05;;;;;;;;;;;7.60;97.00;;;;;;5075684;28;19923;-50
2023/10/21 02:12:32;;;;;;;;;;;7.70;97.00;;;;;;5075207;28;20275;-52
2023/10/21 02:14:59;;;;;;;;;;;7.70;97.10;;;;;;5069641;28;19982;-52
2023/10/21 02:17:27;;;;;;;;;;;7.70;97.00;;;;;;5077189;28;19916;-53
2023/10/21 02:19:56;;;;;;;;;;;7.70;97.00;;;;;;5058028;28;20516;-47
2023/10/21 02:22:23;;;;;;;;;;;7.70;97.10;;;;;;5071184;28;19944;-50
2023/10/21 02:24:51;;;;;;;;;;;7.70;97.10;;;;;;5056236;28;19916;-52
2023/10/21 02:27:19;;;;;;;;;;;7.70;97.10;;;;;;5054922;28;20542;-50
2023/10/21 02:29:46;;;;;;;;;;;7.70;97.20;;;;;;5054800;28;19906;-52
2023/10/21 02:32:12;;;;;;;;;;;7.70;97.20;;;;;;5066058;28;19912;-48
2023/10/21 02:34:37;;;;;;;;;;;7.80;97.10;;;;;;5059233;28;20644;-51
2023/10/21 02:37:03;;;;;;;;;;;7.70;97.20;;;;;;5064400;28;19909;-51
2023/10/21 02:39:29;;;;;;;;;;;7.80;97.20;;;;;;5055971;28;19916;-51
2023/10/21 02:41:56;;;;;;;;;;;7.80;97.20;;;;;;5066805;28;19931;-49
2023/10/21 02:44:22;;;;;;;;;;;7.80;97.20;;;;;;5069254;28;20269;-48
2023/10/21 02:46:48;;;;;;;;;;;7.80;97.20;;;;;;5056103;28;19905;-52
2023/10/21 02:49:14;;;;;;;;;;;7.90;97.20;;;;;;5074750;28;19927;-50
2023/10/21 02:51:41;;;;;;;;;;;7.90;97.20;;;;;;5061323;28;19909;-49
2023/10/21 02:54:08;;;;;;;;;;;7.90;97.30;;;;;;5072109;28;19913;-53
2023/10/21 02:56:34;;;;;;;;;;;7.80;97.20;;;;;;5055321;28;19912;-50
2023/10/21 02:59:01;;;;;;;;;;;7.80;97.20;;;;;;5053799;28;20011;-53
2023/10/21 03:01:26;;;;;;;;;;;7.80;97.20;;;;;;5061996;28;20522;-51
2023/10/21 03:03:53;;;;;;;;;;;7.90;97.30;;;;;;5074911;28;19998;-52
2023/10/21 03:06:23;;;;;;;;;;;7.90;97.30;;;;;;5071291;28;20254;-49
2023/10/21 03:08:48;;;;;;;;;;;7.90;97.30;;;;;;5073130;28;20006;-46
2023/10/21 03:11:14;;;;;;;;;;;7.90;97.30;;;;;;5072993;28;20384;-47
2023/10/21 03:13:42;;;;;;;;;;;7.90;97.20;;;;;;5066113;28;20315;-49
2023/10/21 03:16:09;;;;;;;;;;;7.90;97.30;;;;;;5074691;28;19904;-50
2023/10/21 03:18:36;;;;;;;;;;;7.90;97.30;;;;;;5073620;28;20030;-48
2023/10/21 03:21:03;;;;;;;;;;;7.90;97.30;;;;;;5072902;28;19916;-51
2023/10/21 03:23:30;;;;;;;;;;;7.90;97.30;;;;;;5075041;28;20253;-51
2023/10/21 03:26:01;;;;;;;;;;;8.00;97.30;;;;;;5067029;28;19999;-49
2023/10/21 03:28:32;;;;;;;;;;;8.00;97.30;;;;;;5064030;28;20413;-48
2023/10/21 03:30:59;;;;;;;;;;;8.00;97.30;;;;;;5074529;28;19908;-51
2023/10/21 03:33:28;;;;;;;;;;;8.00;97.30;;;;;;5051141;28;19913;-49
2023/10/21 03:35:55;;;;;;;;;;;8.00;97.30;;;;;;5066314;28;19934;-51
2023/10/21 03:38:22;;;;;;;;;;;8.10;97.40;;;;;;5072943;28;19939;-49
2023/10/21 03:41:15;;;;;;;;;;;8.00;97.30;;;;;;5074362;28;20014;-48
2023/10/21 03:43:41;;;;;;;;;;;8.10;97.40;;;;;;5061275;28;19921;-50
2023/10/21 03:46:14;;;;;;;;;;;8.10;97.40;;;;;;5054071;28;20326;-50
2023/10/21 03:48:41;;;;;;;;;;;8.10;97.40;;;;;;5065862;28;19908;-49
2023/10/21 03:51:11;;;;;;;;;;;8.10;97.40;;;;;;5072488;28;19908;-52
2023/10/21 03:53:50;;;;;;;;;;;8.10;97.40;;;;;;5053417;28;19908;-49
2023/10/21 03:56:17;;;;;;;;;;;8.20;97.40;;;;;;5061694;28;19908;-48
2023/10/21 03:58:47;;;;;;;;;;;8.20;97.40;;;;;;5073699;28;19912;-46
2023/10/21 04:01:14;;;;;;;;;;;8.20;97.40;;;;;;5064622;28;19913;-46
2023/10/21 04:03:39;;;;;;;;;;;8.10;97.40;;;;;;5053065;28;20357;-46
2023/10/21 04:06:13;;;;;;;;;;;8.20;97.40;;;;;;5072603;28;19904;-51
2023/10/21 04:08:43;;;;;;;;;;;8.10;97.40;;;;;;5053845;28;19913;-48
2023/10/21 04:11:09;;;;;;;;;;;8.20;97.40;;;;;;5054008;28;19905;-47
2023/10/21 04:13:35;;;;;;;;;;;8.20;97.40;;;;;;5053320;28;19916;-48
2023/10/21 04:16:05;;;;;;;;;;;8.20;97.40;;;;;;5068039;28;19912;-52
2023/10/21 04:18:33;;;;;;;;;;;8.20;97.40;;;;;;5074104;28;20010;-48
2023/10/21 04:21:00;;;;;;;;;;;8.20;97.40;;;;;;5070889;28;19930;-47
2023/10/21 04:23:27;;;;;;;;;;;8.20;97.50;;;;;;5073544;28;20249;-50
2023/10/21 04:25:55;;;;;;;;;;;8.20;97.40;;;;;;5072226;28;19916;-52
2023/10/21 04:28:23;;;;;;;;;;;8.20;97.50;;;;;;5073391;28;19912;-52
2023/10/21 04:30:50;;;;;;;;;;;8.20;97.50;;;;;;5073473;28;19908;-52
2023/10/21 04:33:15;;;;;;;;;;;8.20;97.50;;;;;;5070496;28;19923;-49
2023/10/21 04:35:40;;;;;;;;;;;8.30;97.50;;;;;;5066141;28;19916;-51
2023/10/21 04:38:09;;;;;;;;;;;8.20;97.40;;;;;;5072968;28;19969;-48
2023/10/21 04:40:37;;;;;;;;;;;8.20;97.40;;;;;;5072838;28;20288;-50
2023/10/21 04:43:03;;;;;;;;;;;8.20;97.40;;;;;;5070695;28;20233;-49
2023/10/21 04:45:30;;;;;;;;;;;8.20;97.50;;;;;;5073076;28;19931;-47
2023/10/21 04:47:57;;;;;;;;;;;8.20;97.50;;;;;;5069670;28;20029;-51
2023/10/21 04:50:23;;;;;;;;;;;8.20;97.50;;;;;;5071321;28;20371;-48
2023/10/21 04:52:50;;;;;;;;;;;8.20;97.50;;;;;;5072768;28;19914;-48
2023/10/21 04:55:15;;;;;;;;;;;8.30;97.50;;;;;;5071187;28;19909;-48
2023/10/21 04:57:42;;;;;;;;;;;8.20;97.50;;;;;;5071370;28;19970;-51
2023/10/21 05:00:09;;;;;;;;;;;8.20;97.50;;;;;;5070389;28;19908;-49
2023/10/21 05:02:36;;;;;;;;;;;8.30;97.50;;;;;;5072980;28;19912;-51
2023/10/21 05:05:03;;;;;;;;;;;8.20;97.50;;;;;;5072523;28;19912;-51
2023/10/21 05:07:29;;;;;;;;;;;8.30;97.50;;;;;;5072529;28;19904;-50
2023/10/21 05:09:56;;;;;;;;;;;8.30;97.50;;;;;;5069849;28;19908;-51
2023/10/21 05:12:22;;;;;;;;;;;8.30;97.50;;;;;;5067586;28;19920;-48
2023/10/21 05:14:51;;;;;;;;;;;8.30;97.60;;;;;;5052134;28;19944;-49
2023/10/21 05:17:17;;;;;;;;;;;8.30;97.50;;;;;;5045565;28;20239;-47
2023/10/21 05:19:43;;;;;;;;;;;8.30;97.50;;;;;;5046930;28;19904;-51
2023/10/21 05:22:08;;;;;;;;;;;8.30;97.50;;;;;;5054507;28;19915;-46
2023/10/21 05:24:36;;;;;;;;;;;8.30;97.50;;;;;;5034828;28;19948;-49
2023/10/21 05:27:03;;;;;;;;;;;8.30;97.50;;;;;;5049524;28;19952;-48
2023/10/21 05:29:30;;;;;;;;;;;8.30;97.50;;;;;;5052013;28;19913;-48
2023/10/21 05:31:56;;;;;;;;;;;8.30;97.50;;;;;;5051867;28;19990;-51
2023/10/21 05:34:23;;;;;;;;;;;8.30;97.60;;;;;;5057111;28;19955;-47
2023/10/21 05:36:49;;;;;;;;;;;8.40;97.60;;;;;;5056639;28;19912;-48
2023/10/21 05:39:16;;;;;;;;;;;8.40;97.60;;;;;;5056623;28;19999;-48
2023/10/21 05:41:42;;;;;;;;;;;8.40;97.50;;;;;;5056206;28;19913;-51
2023/10/21 05:44:08;;;;;;;;;;;8.40;97.50;;;;;;5038067;28;20258;-49
2023/10/21 05:46:35;;;;;;;;;;;8.40;97.50;;;;;;5054301;28;19992;-46
2023/10/21 05:49:02;;;;;;;;;;;8.40;97.60;;;;;;5055620;28;20317;-52
2023/10/21 05:51:30;;;;;;;;;;;8.40;97.50;;;;;;5057492;28;20345;-50
2023/10/21 05:53:57;;;;;;;;;;;8.40;97.50;;;;;;5056142;28;19936;-53
2023/10/21 05:56:23;;;;;;;;;;;8.40;97.60;;;;;;5044226;28;19909;-49
2023/10/21 05:58:52;;;;;;;;;;;8.40;97.60;;;;;;5055245;28;19916;-53
2023/10/21 06:01:19;;;;;;;;;;;8.40;97.60;;;;;;5053837;28;19924;-50
2023/10/21 06:03:45;;;;;;;;;;;8.40;97.50;;;;;;5053483;28;19959;-49
2023/10/21 06:06:11;;;;;;;;;;;8.40;97.60;;;;;;5055732;28;19912;-47
2023/10/21 06:08:37;;;;;;;;;;;8.40;97.60;;;;;;5055790;28;20390;-50
2023/10/21 06:11:06;;;;;;;;;;;8.40;97.60;;;;;;5037934;28;20262;-53
2023/10/21 06:13:31;;;;;;;;;;;8.40;97.60;;;;;;5057610;28;19924;-48
2023/10/21 06:16:02;;;;;;;;;;;8.40;97.60;;;;;;5075106;28;19908;-48
2023/10/21 06:18:29;;;;;;;;;;;8.50;97.60;;;;;;5075240;28;20003;-48
2023/10/21 06:20:54;;;;;;;;;;;8.50;97.60;;;;;;5072172;28;20003;-48
2023/10/21 06:23:20;;;;;;;;;;;8.50;97.60;;;;;;5075348;28;19912;-46
2023/10/21 06:25:45;;;;;;;;;;;8.50;97.60;;;;;;5068355;28;19909;-52
2023/10/21 06:28:13;;;;;;;;;;;8.50;97.60;;;;;;5073938;28;19916;-51
2023/10/21 06:30:43;;;;;;;;;;;8.50;97.60;;;;;;5073914;28;19913;-47
2023/10/21 06:33:09;;;;;;;;;;;8.50;97.50;;;;;;5067126;28;19916;-48
2023/10/21 06:35:36;;;;;;;;;;;8.60;97.60;;;;;;5061095;28;19916;-47
2023/10/21 06:38:04;;;;;;;;;;;8.60;97.60;;;;;;5073019;28;19912;-47
2023/10/21 06:40:31;;;;;;;;;;;8.60;97.60;;;;;;5071594;28;19912;-52
2023/10/21 06:42:57;;;;;;;;;;;8.60;97.60;;;;;;5073673;28;19958;-51
2023/10/21 06:45:24;;;;;;;;;;;8.70;97.60;;;;;;5071334;28;19942;-52
2023/10/21 06:47:50;;;;;;;;;;;8.60;97.60;;;;;;5073100;28;19929;-49
2023/10/21 06:50:17;;;;;;;;;;;8.70;97.60;;;;;;5074108;28;20230;-53
2023/10/21 06:52:44;;;;;;;;;;;8.70;97.60;;;;;;5071947;28;19971;-50
2023/10/21 06:55:11;;;;;;;;;;;8.70;97.60;;;;;;5075153;28;19908;-48
2023/10/21 06:57:37;;;;;;;;;;;8.70;97.60;;;;;;5074312;28;19999;-49
2023/10/21 07:00:03;;;;;;;;;;;8.70;97.60;;;;;;5072871;28;20007;-51
2023/10/21 07:02:30;;;;;;;;;;;8.80;97.60;;;;;;5074758;28;20285;-48
2023/10/21 07:04:56;;;;;;;;;;;8.80;97.60;;;;;;5074409;28;19915;-50
2023/10/21 07:07:23;;;;;;;;;;;8.80;97.60;;;;;;5064913;28;20000;-50
2023/10/21 07:09:51;;;;;;;;;;;8.80;97.60;;;;;;5072529;28;19974;-48
2023/10/21 07:12:20;;;;;;;;;;;8.90;97.60;;;;;;5073432;28;19964;-49
2023/10/21 07:14:48;;;;;;;;;;;8.90;97.50;;;;;;5071352;28;19915;-51
2023/10/21 07:17:15;;;;;;;;;;;8.90;97.60;;;;;;5073063;28;19912;-51
2023/10/21 07:19:41;;;;;;;;;;;8.90;97.60;;;;;;5071853;28;19916;-48
2023/10/21 07:22:08;;;;;;;;;;;8.90;97.60;;;;;;5071718;28;20428;-53
2023/10/21 07:24:35;;;;;;;;;;;8.90;97.60;;;;;;5073495;28;20391;-52
2023/10/21 07:27:01;;;;;;;;;;;8.90;97.50;;;;;;5072192;28;19912;-49
2023/10/21 07:29:27;;;;;;;;;;;8.90;97.50;;;;;;5084163;28;19912;-47
2023/10/21 07:31:52;;;;;;;;;;;9.00;97.60;;;;;;5071301;28;20390;-53
2023/10/21 07:34:18;;;;;;;;;;;9.00;97.50;;;;;;5072943;28;19934;-52
2023/10/21 07:36:46;;;;;;;;;;;9.00;97.50;;;;;;5071005;28;19908;-53
2023/10/21 07:39:18;;;;;;;;;;;9.00;97.50;;;;;;5070440;28;19923;-53
2023/10/21 07:41:44;;;;;;;;;;;9.00;97.50;;;;;;5069191;28;20368;-50
2023/10/21 07:44:13;;;;;;;;;;;9.00;97.50;;;;;;5079511;28;19999;-49
2023/10/21 07:46:40;;;;;;;;;;;9.00;97.50;;;;;;5074109;28;19935;-49
2023/10/21 07:49:07;;;;;;;;;;;9.00;97.50;;;;;;5074040;28;19916;-48
2023/10/21 07:51:32;;;;;;;;;;;9.00;97.50;;;;;;5072911;28;19904;-52
2023/10/21 07:53:59;;;;;;;;;;;9.10;97.50;;;;;;5054702;28;19919;-51
2023/10/21 07:56:25;;;;;;;;;;;9.10;97.50;;;;;;5061952;28;19994;-47
2023/10/21 07:58:57;;;;;;;;;;;9.10;97.50;;;;;;5070550;28;19929;-49
2023/10/21 08:01:24;;;;;;;;;;;9.10;97.50;;;;;;5071608;28;19912;-50
2023/10/21 08:03:51;;;;;;;;;;;9.20;97.50;;;;;;5073487;28;19905;-49
2023/10/21 08:06:18;;;;;;;;;;;9.20;97.50;;;;;;5073441;28;19918;-48
2023/10/21 08:08:44;;;;;;;;;;;9.20;97.50;;;;;;5072802;28;19954;-49
2023/10/21 08:11:10;;;;;;;;;;;9.20;97.50;;;;;;5059911;28;19912;-51
2023/10/21 08:13:37;;;;;;;;;;;9.20;97.50;;;;;;5056958;28;19987;-54
2023/10/21 08:16:06;;;;;;;;;;;9.20;97.50;;;;;;5048304;28;19975;-50
2023/10/21 08:18:32;;;;;;;;;;;9.30;97.50;;;;;;5030126;28;19979;-49
2023/10/21 08:20:59;;;;;;;;;;;9.30;97.50;;;;;;5049466;28;19995;-53
2023/10/21 08:23:27;;;;;;;;;;;9.40;97.50;;;;;;5032200;28;19908;-54
2023/10/21 08:25:54;;;;;;;;;;;9.40;97.50;;;;;;5047224;28;19923;-54
2023/10/21 08:28:22;;;;;;;;;;;9.40;97.40;;;;;;5051803;28;20003;-53
2023/10/21 08:30:57;;;;;;;;;;;9.40;97.50;;;;;;5051497;28;19905;-53
2023/10/21 08:33:22;;;;;;;;;;;9.50;97.50;;;;;;5051553;28;19912;-53
2023/10/21 08:35:48;;;;;;;;;;;9.50;97.50;;;;;;5032904;28;19944;-50
2023/10/21 08:38:15;;;;;;;;;;;9.60;97.60;;;;;;5052156;28;20011;-51
2023/10/21 08:40:46;;;;;;;;;;;9.60;97.40;;;;;;5045775;28;20387;-55
2023/10/21 08:43:22;;;;;;;;;;;9.60;97.40;;;;;;5048533;28;19975;-48
2023/10/21 08:45:50;;;;;;;;;;;9.70;97.50;;;;;;5045422;28;19913;-53
2023/10/21 08:48:17;;;;;;;;;;;9.80;97.50;;;;;;5028726;28;20250;-49
2023/10/21 08:50:48;;;;;;;;;;;9.90;97.40;;;;;;5041536;28;19909;-52
2023/10/21 08:53:15;;;;;;;;;;;9.90;97.40;;;;;;5025456;28;19947;-51
2023/10/21 08:55:43;;;;;;;;;;;9.90;97.40;;;;;;5045505;28;19913;-51
2023/10/21 08:58:10;;;;;;;;;;;9.90;97.40;;;;;;5034513;28;19913;-49
2023/10/21 09:00:38;;;;;;;;;;;9.90;97.40;;;;;;5042449;28;19905;-51
2023/10/21 09:03:05;;;;;;;;;;;9.90;97.30;;;;;;5039453;28;20018;-51
2023/10/21 09:05:32;;;;;;;;;;;10.00;97.40;;;;;;5047197;28;19913;-51
2023/10/21 09:08:00;;;;;;;;;;;10.00;97.30;;;;;;5051574;28;19909;-55
2023/10/21 09:10:27;;;;;;;;;;;10.20;97.40;;;;;;5049426;28;19919;-55
2023/10/21 09:12:54;;;;;;;;;;;10.20;97.40;;;;;;5055259;28;19923;-51
2023/10/21 09:15:34;;;;;;;;;;;10.30;97.30;;;;;;5054966;28;20302;-55
2023/10/21 09:18:08;;;;;;;;;;;10.30;97.30;;;;;;5058769;28;19925;-51
2023/10/21 09:20:39;;;;;;;;;;;10.40;97.30;;;;;;5062964;28;20691;-51
2023/10/21 09:23:13;;;;;;;;;;;10.40;97.20;;;;;;5035742;28;19917;-52
2023/10/21 09:25:48;;;;;;;;;;;10.40;97.20;;;;;;5052290;28;19908;-54
2023/10/21 09:28:19;;;;;;;;;;;10.40;97.10;;;;;;5052509;28;19916;-55
2023/10/21 09:31:07;;;;;;;;;;;10.40;97.10;;;;;;5052461;28;19932;-55
2023/10/21 09:33:52;;;;;;;;;;;10.50;97.00;;;;;;5068122;28;19912;-53
2023/10/21 09:36:28;;;;;;;;;;;10.40;96.90;;;;;;5067569;28;19909;-56
2023/10/21 09:38:57;;;;;;;;;;;10.50;97.00;;;;;;5064787;28;19948;-56
2023/10/21 09:41:33;;;;;;;;;;;10.60;97.00;;;;;;5068670;28;20022;-56
2023/10/21 09:44:02;;;;;;;;;;;10.70;96.90;;;;;;5070648;28;20402;-56
2023/10/21 09:46:30;;;;;;;;;;;10.70;96.80;;;;;;5053944;28;20598;-57
2023/10/21 09:49:03;;;;;;;;;;;10.80;96.70;;;;;;5052937;28;19916;-52
2023/10/21 09:51:32;;;;;;;;;;;10.80;96.70;;;;;;5055499;28;19919;-51
2023/10/21 09:54:00;;;;;;;;;;;10.70;96.60;;;;;;5037721;28;19995;-57
2023/10/21 09:56:26;;;;;;;;;;;10.70;96.60;;;;;;5055382;28;19917;-55
2023/10/21 09:58:53;;;;;;;;;;;10.80;96.50;;;;;;5064088;28;19966;-56
2023/10/21 10:01:23;;;;;;;;;;;10.70;96.50;;;;;;5057166;28;20038;-52
2023/10/21 10:03:59;;;;;;;;;;;10.80;96.40;;;;;;5064509;28;20038;-54
2023/10/21 10:06:26;;;;;;;;;;;10.80;96.40;;;;;;5048680;28;20007;-57
2023/10/21 10:08:55;;;;;;;;;;;10.90;96.50;;;;;;5072002;28;20081;-57
2023/10/21 10:11:27;;;;;;;;;;;10.90;96.40;;;;;;5054836;28;19912;-57
2023/10/21 10:13:54;;;;;;;;;;;10.90;96.40;;;;;;5068313;28;19916;-51
2023/10/21 10:16:37;;;;;;;;;;;11.00;96.30;;;;;;5071705;28;19962;-58
2023/10/21 10:19:05;;;;;;;;;;;10.90;96.20;;;;;;5057824;28;20376;-54
2023/10/21 10:21:33;;;;;;;;;;;10.90;96.10;;;;;;5055458;28;20082;-57
2023/10/21 10:24:02;;;;;;;;;;;10.90;96.10;;;;;;5056115;28;19970;-57
2023/10/21 10:26:36;;;;;;;;;;;11.00;96.20;;;;;;5074320;28;19912;-56
2023/10/21 10:29:26;;;;;;;;;;;11.00;96.20;;;;;;5075668;28;20295;-56
2023/10/21 10:32:11;;;;;;;;;;;11.10;96.20;;;;;;5060955;28;19917;-54
2023/10/21 10:34:48;;;;;;;;;;;11.20;96.20;;;;;;5070060;28;19913;-56
2023/10/21 10:37:24;;;;;;;;;;;11.40;96.10;;;;;;5064185;28;19951;-57
2023/10/21 10:39:51;;;;;;;;;;;11.40;96.00;;;;;;5069699;28;19920;-57
2023/10/21 10:42:18;;;;;;;;;;;11.50;95.90;;;;;;5071780;28;19930;-56
2023/10/21 10:44:45;;;;;;;;;;;11.50;95.80;;;;;;5062965;28;19913;-56
2023/10/21 10:47:15;;;;;;;;;;;11.70;95.80;;;;;;5058141;28;19908;-51
2023/10/21 10:50:00;;;;;;;;;;;11.80;95.80;;;;;;5068673;28;19908;-55
2023/10/21 10:52:35;;;;;;;;;;;11.80;95.60;;;;;;5072041;28;19919;-57
2023/10/21 10:55:08;;;;;;;;;;;11.80;95.60;;;;;;5075575;28;19919;-55
2023/10/21 10:57:44;;;;;;;;;;;11.80;95.30;;;;;;5073060;28;20529;-55
2023/10/21 11:00:10;;;;;;;;;;;11.90;95.40;;;;;;5066436;28;19917;-56
2023/10/21 11:02:47;;;;;;;;;;;11.90;95.30;;;;;;5073246;28;19923;-57
2023/10/21 11:05:20;;;;;;;;;;;11.90;95.10;;;;;;5072095;28;20308;-54
2023/10/21 11:07:47;;;;;;;;;;;12.00;95.10;;;;;;5071878;28;19912;-55
2023/10/21 11:10:17;;;;;;;;;;;12.10;95.10;;;;;;5064284;28;19909;-54
2023/10/21 11:12:53;;;;;;;;;;;12.20;94.90;;;;;;5056797;28;19926;-56
2023/10/21 11:15:20;;;;;;;;;;;12.40;95.00;;;;;;5056819;28;19909;-55
2023/10/21 11:17:47;;;;;;;;;;;12.40;94.80;;;;;;5054849;28;19916;-53
2023/10/21 11:20:14;;;;;;;;;;;12.60;94.80;;;;;;5053463;28;19958;-56
2023/10/21 11:22:43;;;;;;;;;;;12.90;94.80;;;;;;5056053;28;19982;-56
2023/10/21 11:25:12;;;;;;;;;;;13.00;94.50;;;;;;5073491;28;19990;-54
2023/10/21 11:27:48;;;;;;;;;;;13.20;94.10;;;;;;5071668;28;19905;-50
2023/10/21 11:30:16;;;;;;;;;;;13.20;93.40;;;;;;5070123;28;19908;-50
2023/10/21 11:32:43;;;;;;;;;;;13.10;93.10;;;;;;5058420;28;19919;-52
2023/10/21 11:35:10;;;;;;;;;;;13.20;93.20;;;;;;5057764;28;20556;-53
2023/10/21 11:37:40;;;;;;;;;;;13.40;93.30;;;;;;5068502;28;19916;-53
2023/10/21 11:40:09;;;;;;;;;;;13.50;93.20;;;;;;5064588;28;19991;-53
2023/10/21 11:42:39;;;;;;;;;;;13.50;93.10;;;;;;5057945;28;20642;-54
2023/10/21 11:45:07;;;;;;;;;;;13.50;92.70;;;;;;5071725;28;19908;-55
2023/10/21 11:47:35;;;;;;;;;;;13.50;92.40;;;;;;5069874;28;19961;-53
2023/10/21 11:50:03;;;;;;;;;;;13.40;92.60;;;;;;5066267;28;19923;-53
2023/10/21 11:52:28;;;;;;;;;;;13.40;92.50;;;;;;5072359;28;20341;-56
2023/10/21 12:06:31;;;;;;;;;;;12.90;93.50;;;;;;5071909;28;19919;-55
2023/10/21 12:41:07;;;;;;;;;;;13.70;94.40;;;;;;5064369;28;20340;-52
2023/10/21 12:43:35;;;;;;;;;;;13.80;94.20;;;;;;5069335;28;19908;-51
2023/10/21 12:46:17;;;;;;;;;;;13.90;94.20;;;;;;5069186;28;20024;-51
2023/10/21 12:48:46;;;;;;;;;;;14.00;94.10;;;;;;5068087;28;19962;-53
2023/10/21 12:51:15;;;;;;;;;;;14.20;94.10;;;;;;5069045;28;20397;-54
2023/10/21 12:53:43;;;;;;;;;;;14.20;93.60;;;;;;5067649;28;19920;-53
2023/10/21 12:56:11;;;;;;;;;;;14.20;93.30;;;;;;5061898;28;20225;-54
2023/10/21 12:58:40;;;;;;;;;;;14.10;93.10;;;;;;5069586;28;19981;-50
2023/10/21 13:01:09;;;;;;;;;;;14.10;93.20;;;;;;5071569;28;20341;-51
2023/10/21 13:03:37;;;;;;;;;;;14.10;93.30;;;;;;5064710;28;20418;-50
2023/10/21 13:06:07;;;;;;;;;;;14.10;92.90;;;;;;5070343;28;19947;-52
2023/10/21 13:08:35;;;;;;;;;;;14.00;92.40;;;;;;5062803;28;19940;-51
2023/10/21 13:11:03;;;;;;;;;;;14.00;92.00;;;;;;5057952;28;19919;-51
2023/10/21 13:13:35;;;;;;;;;;;14.20;92.30;;;;;;5066743;28;20333;-51
2023/10/21 13:16:03;;;;;;;;;;;14.30;91.50;;;;;;5060657;28;20237;-49
2023/10/21 13:18:31;;;;;;;;;;;14.40;91.50;;;;;;5064124;28;19967;-49
2023/10/21 13:21:02;;;;;;;;;;;14.40;91.20;;;;;;5067031;28;19912;-51
2023/10/21 13:23:27;;;;;;;;;;;14.30;90.80;;;;;;5063863;28;19908;-53
2023/10/21 13:25:53;;;;;;;;;;;14.20;90.80;;;;;;5066503;28;20335;-54
2023/10/21 13:28:19;;;;;;;;;;;14.20;91.00;;;;;;5059261;28;19966;-50
2023/10/21 13:30:48;;;;;;;;;;;14.30;90.90;;;;;;5060811;28;19917;-49
2023/10/21 13:33:14;;;;;;;;;;;14.30;90.60;;;;;;5058749;28;19916;-51
2023/10/21 13:35:45;;;;;;;;;;;14.30;90.50;;;;;;5064959;28;20475;-52
2023/10/21 13:38:11;;;;;;;;;;;14.40;90.30;;;;;;5055814;28;19916;-51
2023/10/21 13:40:38;;;;;;;;;;;14.40;89.80;;;;;;5064256;28;20260;-52
2023/10/21 13:43:04;;;;;;;;;;;14.40;89.50;;;;;;5064967;28;19999;-51
2023/10/21 13:45:32;;;;;;;;;;;14.40;89.40;;;;;;5065614;28;19943;-53
2023/10/21 13:48:08;;;;;;;;;;;14.30;89.20;;;;;;5070032;28;19912;-51
2023/10/21 13:50:38;;;;;;;;;;;14.30;89.20;;;;;;5067675;28;19940;-49
2023/10/21 13:53:40;;;;;;;;;;;14.40;88.70;;;;;;5072242;28;19916;-52
2023/10/21 13:56:02;;;;;;;;;;;14.50;88.80;;;;;;5067966;28;20408;-51
2023/10/21 13:58:30;;;;;;;;;;;14.60;88.30;;;;;;5068934;28;19912;-50
2023/10/21 14:00:59;;;;;;;;;;;14.70;88.00;;;;;;5074919;28;19948;-49
2023/10/21 14:03:25;;;;;;;;;;;14.70;88.20;;;;;;5068349;28;19916;-50
2023/10/21 14:05:52;;;;;;;;;;;14.70;87.90;;;;;;5072038;28;20800;-49
2023/10/21 14:08:19;;;;;;;;;;;14.60;86.70;;;;;;5074110;28;19918;-52
2023/10/21 14:10:46;;;;;;;;;;;14.50;85.90;;;;;;5057363;28;19916;-53
2023/10/21 14:13:15;;;;;;;;;;;14.50;85.30;;;;;;5075497;28;19924;-48
2023/10/21 14:15:44;;;;;;;;;;;14.40;85.50;;;;;;5070101;28;20301;-49
2023/10/21 14:18:11;;;;;;;;;;;14.40;85.50;;;;;;5075137;28;19912;-49
2023/10/21 14:20:43;;;;;;;;;;;14.40;84.80;;;;;;5071998;28;19908;-49
2023/10/21 14:23:23;;;;;;;;;;;14.30;85.30;;;;;;5074306;28;20286;-50
2023/10/21 14:25:52;;;;;;;;;;;14.20;85.50;;;;;;5068697;28;19955;-51
2023/10/21 14:28:19;;;;;;;;;;;14.10;85.00;;;;;;5056143;28;19984;-49
2023/10/21 14:30:49;;;;;;;;;;;14.00;85.30;;;;;;5073124;28;19970;-52
2023/10/21 14:33:22;;;;;;;;;;;14.00;85.60;;;;;;5070405;28;20452;-52
2023/10/21 14:35:57;;;;;;;;;;;14.00;85.60;;;;;;5072996;28;20344;-49
2023/10/21 14:38:26;;;;;;;;;;;14.10;85.30;;;;;;5070949;28;20314;-52
2023/10/21 14:40:53;;;;;;;;;;;14.10;85.20;;;;;;5070441;28;20012;-51
2023/10/21 14:43:19;;;;;;;;;;;14.00;85.30;;;;;;5073049;28;19908;-50
2023/10/21 14:45:48;;;;;;;;;;;14.00;85.80;;;;;;5068627;28;19908;-55
2023/10/21 14:48:13;;;;;;;;;;;14.00;85.20;;;;;;5071235;28;20341;-50
2023/10/21 14:50:50;;;;;;;;;;;13.90;85.30;;;;;;5070443;28;19926;-50
2023/10/21 14:53:16;;;;;;;;;;;13.90;85.60;;;;;;5077611;28;19947;-49
2023/10/21 14:55:43;;;;;;;;;;;13.90;86.00;;;;;;5070141;28;19916;-49
2023/10/21 14:58:11;;;;;;;;;;;13.80;86.30;;;;;;5072372;28;19943;-54
2023/10/21 15:00:37;;;;;;;;;;;13.90;86.40;;;;;;5071699;28;19916;-49
2023/10/21 15:03:04;;;;;;;;;;;13.80;86.50;;;;;;5072244;28;20007;-51
2023/10/21 15:05:33;;;;;;;;;;;13.70;86.50;;;;;;5071119;28;19966;-49
2023/10/21 15:07:59;;;;;;;;;;;13.70;86.50;;;;;;5072539;28;19954;-50
2023/10/21 15:10:25;;;;;;;;;;;13.70;86.80;;;;;;5070308;28;19956;-51
2023/10/21 15:12:55;;;;;;;;;;;13.60;87.00;;;;;;5069758;28;20411;-51
2023/10/21 15:15:22;;;;;;;;;;;13.60;87.10;;;;;;5073358;28;19950;-53